createdAt,value
2023-01-11T00:01:53.648Z,100.00
2023-01-11T00:04:20.692Z,100.00
2023-01-11T00:06:47.325Z,100.00
2023-01-11T00:09:13.996Z,100.00
2023-01-11T00:11:40.562Z,100.00
2023-01-11T00:14:07.094Z,100.00
2023-01-11T00:16:33.617Z,100.00
2023-01-11T00:19:00.123Z,100.00
2023-01-11T00:21:26.840Z,100.00
2023-01-11T00:23:53.449Z,100.00
2023-01-11T00:26:20.067Z,100.00
2023-01-11T00:28:48.780Z,100.00
2023-01-11T00:31:16.053Z,100.00
2023-01-11T00:33:42.984Z,100.00
2023-01-11T00:36:09.788Z,100.00
2023-01-11T00:38:47.118Z,100.00
2023-01-11T00:41:42.402Z,100.00
2023-01-11T00:44:29.699Z,100.00
2023-01-11T00:47:29.369Z,100.00
2023-01-11T00:49:55.877Z,100.00
2023-01-11T00:52:22.570Z,100.00
2023-01-11T00:54:49.495Z,100.00
2023-01-11T00:57:16.074Z,100.00
2023-01-11T00:59:42.633Z,100.00
2023-01-11T01:02:10.449Z,100.00
2023-01-11T01:04:37.710Z,100.00
2023-01-11T01:07:04.874Z,100.00
2023-01-11T01:09:31.686Z,100.00
2023-01-11T01:11:59.115Z,100.00
2023-01-11T01:14:33.275Z,100.00
2023-01-11T01:17:07.227Z,100.00
2023-01-11T01:19:38.348Z,100.00
2023-01-11T01:22:05.112Z,100.00
2023-01-11T01:24:32.569Z,100.00
2023-01-11T01:26:59.476Z,100.00
2023-01-11T01:29:27.266Z,100.00
2023-01-11T01:31:53.883Z,100.00
2023-01-11T01:34:20.423Z,100.00
2023-01-11T01:36:47.012Z,100.00
2023-01-11T01:39:13.813Z,100.00
2023-01-11T01:41:40.574Z,100.00
2023-01-11T01:44:44.860Z,100.00
2023-01-11T01:47:12.660Z,100.00
2023-01-11T01:49:40.754Z,100.00
2023-01-11T01:52:08.890Z,100.00
2023-01-11T01:54:40.941Z,100.00
2023-01-11T01:57:15.293Z,100.00
2023-01-11T01:59:42.063Z,100.00
2023-01-11T02:02:08.601Z,100.00
2023-01-11T02:04:44.286Z,100.00
2023-01-11T02:07:16.393Z,100.00
2023-01-11T02:09:55.361Z,100.00
2023-01-11T02:12:22.686Z,100.00
2023-01-11T02:14:49.540Z,100.00
2023-01-11T02:17:16.205Z,100.00
2023-01-11T02:20:04.528Z,100.00
2023-01-11T02:22:33.699Z,100.00
2023-01-11T02:25:12.806Z,100.00
2023-01-11T02:27:48.117Z,100.00
2023-01-11T02:30:23.475Z,100.00
2023-01-11T02:32:50.000Z,100.00
2023-01-11T02:35:36.631Z,100.00
2023-01-11T02:38:24.599Z,100.00
2023-01-11T02:41:00.965Z,100.00
2023-01-11T02:43:55.221Z,100.00
2023-01-11T02:46:52.996Z,100.00
2023-01-11T02:49:39.563Z,100.00
2023-01-11T02:52:17.460Z,100.00
2023-01-11T02:54:47.957Z,100.00
2023-01-11T02:57:15.673Z,100.00
2023-01-11T02:59:42.345Z,100.00
2023-01-11T03:02:09.847Z,100.00
2023-01-11T03:04:37.574Z,100.00
2023-01-11T03:07:06.838Z,100.00
2023-01-11T03:09:43.278Z,100.00
2023-01-11T03:12:31.213Z,100.00
2023-01-11T03:15:30.531Z,100.00
2023-01-11T03:18:08.902Z,100.00
2023-01-11T03:20:40.849Z,100.00
2023-01-11T03:23:45.056Z,100.00
2023-01-11T03:26:29.819Z,100.00
2023-01-11T03:29:08.576Z,100.00
2023-01-11T03:31:40.716Z,100.00
2023-01-11T03:34:27.016Z,100.00
2023-01-11T03:37:25.514Z,100.00
2023-01-11T03:40:14.248Z,100.00
2023-01-11T03:43:04.258Z,100.00
2023-01-11T03:45:35.695Z,100.00
2023-01-11T03:48:05.023Z,100.00
2023-01-11T03:50:33.899Z,100.00
2023-01-11T03:53:03.693Z,100.00
2023-01-11T03:55:37.017Z,100.00
2023-01-11T03:58:03.710Z,100.00
2023-01-11T04:00:31.642Z,100.00
2023-01-11T04:03:00.580Z,100.00
2023-01-11T04:05:27.137Z,100.00
2023-01-11T04:07:54.550Z,100.00
2023-01-11T04:10:21.114Z,100.00
2023-01-11T04:12:48.748Z,100.00
2023-01-11T04:15:16.251Z,100.00
2023-01-11T04:17:43.107Z,100.00
2023-01-11T04:20:11.036Z,100.00
2023-01-11T04:22:38.424Z,100.00
2023-01-11T04:25:05.392Z,100.00
2023-01-11T04:27:31.979Z,100.00
2023-01-11T04:29:58.489Z,100.00
2023-01-11T04:32:25.009Z,100.00
2023-01-11T04:34:51.599Z,100.00
2023-01-11T04:37:18.190Z,100.00
2023-01-11T04:39:44.729Z,100.00
2023-01-11T04:42:21.330Z,100.00
2023-01-11T04:44:49.466Z,100.00
2023-01-11T04:47:17.279Z,100.00
2023-01-11T04:49:44.230Z,100.00
2023-01-11T04:52:12.397Z,100.00
2023-01-11T04:54:39.391Z,100.00
2023-01-11T04:57:07.188Z,100.00
2023-01-11T04:59:33.761Z,100.00
2023-01-11T05:02:00.337Z,100.00
2023-01-11T05:04:26.944Z,100.00
2023-01-11T05:06:53.630Z,100.00
2023-01-11T05:09:20.474Z,100.00
2023-01-11T05:11:47.398Z,100.00
2023-01-11T05:14:15.523Z,100.00
2023-01-11T05:16:42.846Z,100.00
2023-01-11T05:19:10.135Z,100.00
2023-01-11T05:21:39.365Z,100.00
2023-01-11T05:24:08.814Z,100.00
2023-01-11T05:26:38.177Z,100.00
2023-01-11T05:29:07.034Z,100.00
2023-01-11T05:31:35.137Z,100.00
2023-01-11T05:34:01.832Z,100.00
2023-01-11T05:36:28.873Z,100.00
2023-01-11T05:38:57.211Z,100.00
2023-01-11T05:41:26.025Z,100.00
2023-01-11T05:44:12.673Z,100.00
2023-01-11T05:46:41.586Z,100.00
2023-01-11T05:49:09.461Z,100.00
2023-01-11T05:51:38.130Z,100.00
2023-01-11T05:54:06.775Z,100.00
2023-01-11T05:56:33.980Z,100.00
2023-01-11T05:59:00.639Z,100.00
2023-01-11T06:01:27.364Z,100.00
2023-01-11T06:03:54.011Z,100.00
2023-01-11T06:06:21.265Z,100.00
2023-01-11T06:08:47.893Z,100.00
2023-01-11T06:11:14.991Z,100.00
2023-01-11T06:13:41.720Z,100.00
2023-01-11T06:16:12.722Z,100.00
2023-01-11T06:18:41.965Z,100.00
2023-01-11T06:21:09.882Z,100.00
2023-01-11T06:23:39.599Z,100.00
2023-01-11T06:26:09.108Z,100.00
2023-01-11T06:28:36.989Z,100.00
2023-01-11T06:31:04.566Z,100.00
2023-01-11T06:33:31.352Z,100.00
2023-01-11T06:35:58.985Z,100.00
2023-01-11T06:38:26.240Z,100.00
2023-01-11T06:40:56.729Z,100.00
2023-01-11T06:43:25.016Z,100.00
2023-01-11T06:45:51.920Z,100.00
2023-01-11T06:48:19.683Z,100.00
2023-01-11T06:50:54.607Z,100.00
2023-01-11T06:53:21.977Z,100.00
2023-01-11T06:55:55.984Z,100.00
2023-01-11T06:58:23.841Z,100.00
2023-01-11T07:00:52.026Z,100.00
2023-01-11T07:03:20.466Z,100.00
2023-01-11T07:05:47.414Z,100.00
2023-01-11T07:08:13.943Z,100.00
2023-01-11T07:10:41.101Z,100.00
2023-01-11T07:13:07.924Z,100.00
2023-01-11T07:15:34.918Z,100.00
2023-01-11T07:18:01.854Z,100.00
2023-01-11T07:20:28.872Z,100.00
2023-01-11T07:22:59.996Z,100.00
2023-01-11T07:25:30.389Z,100.00
2023-01-11T07:28:01.981Z,100.00
2023-01-11T07:30:31.314Z,100.00
2023-01-11T07:32:59.178Z,100.00
2023-01-11T07:35:28.195Z,100.00
2023-01-11T07:37:55.901Z,100.00
2023-01-11T07:40:22.468Z,100.00
2023-01-11T07:43:11.597Z,100.00
2023-01-11T07:45:47.323Z,100.00
2023-01-11T07:48:15.572Z,100.00
2023-01-11T07:50:44.768Z,100.00
2023-01-11T07:53:12.844Z,100.00
2023-01-11T07:55:40.231Z,100.00
2023-01-11T07:58:10.686Z,100.00
2023-01-11T08:00:37.257Z,100.00
2023-01-11T08:03:04.059Z,100.00
2023-01-11T08:05:30.688Z,100.00
2023-01-11T08:07:57.457Z,100.00
2023-01-11T08:10:24.350Z,100.00
2023-01-11T08:13:09.739Z,100.00
2023-01-11T08:15:42.571Z,100.00
2023-01-11T08:18:11.576Z,100.00
2023-01-11T08:20:39.067Z,100.00
2023-01-11T08:23:07.903Z,100.00
2023-01-11T08:25:35.353Z,100.00
2023-01-11T08:28:04.272Z,100.00
2023-01-11T08:30:30.860Z,100.00
2023-01-11T08:32:57.792Z,100.00
2023-01-11T08:35:27.292Z,100.00
2023-01-11T08:37:54.360Z,100.00
2023-01-11T08:40:23.728Z,100.00
2023-01-11T08:42:55.008Z,100.00
2023-01-11T08:45:22.187Z,100.00
2023-01-11T08:47:50.787Z,100.00
2023-01-11T08:50:18.642Z,100.00
2023-01-11T08:52:45.620Z,100.00
2023-01-11T08:55:12.149Z,100.00
2023-01-11T08:57:38.975Z,100.00
2023-01-11T09:00:07.670Z,100.00
2023-01-11T09:02:34.573Z,100.00
2023-01-11T09:05:01.164Z,100.00
2023-01-11T09:07:27.866Z,100.00
2023-01-11T09:09:54.606Z,93.76
2023-01-11T09:12:21.301Z,83.80
2023-01-11T09:14:47.831Z,82.04
2023-01-11T09:17:14.446Z,83.31
2023-01-11T09:19:40.955Z,87.74
2023-01-11T09:22:07.505Z,91.95
2023-01-11T09:24:34.089Z,97.24
2023-01-11T09:27:00.799Z,100.00
2023-01-11T09:29:27.545Z,99.96
2023-01-11T09:31:54.125Z,100.00
2023-01-11T09:34:21.184Z,100.00
2023-01-11T09:36:49.011Z,100.00
2023-01-11T09:39:18.801Z,100.00
2023-01-11T09:42:00.246Z,100.00
2023-01-11T09:44:29.730Z,100.00
2023-01-11T09:47:15.669Z,100.00
2023-01-11T09:49:47.269Z,100.00
2023-01-11T09:52:29.922Z,100.00
2023-01-11T09:55:01.397Z,100.00
2023-01-11T09:57:33.689Z,100.00
2023-01-11T10:00:24.073Z,100.00
2023-01-11T10:03:08.669Z,100.00
2023-01-11T10:05:50.087Z,100.00
2023-01-11T10:18:33.077Z,100.00
2023-01-11T10:18:37.723Z,100.00
2023-01-11T10:20:55.369Z,98.99
2023-01-11T10:23:57.464Z,93.17
2023-01-11T10:26:36.093Z,88.44
2023-01-11T10:29:21.684Z,90.02
2023-01-11T10:32:19.963Z,85.11
2023-01-11T10:34:58.335Z,83.79
2023-01-11T10:37:30.719Z,83.34
2023-01-11T10:40:19.573Z,80.42
2023-01-11T10:42:52.744Z,82.45
2023-01-11T10:45:25.488Z,83.77
2023-01-11T10:48:02.743Z,82.65
2023-01-11T10:50:38.236Z,83.71
2023-01-11T10:53:17.129Z,82.73
2023-01-11T10:56:08.476Z,80.29
2023-01-11T10:58:57.908Z,80.61
2023-01-11T11:01:45.331Z,79.97
2023-01-11T11:04:22.617Z,80.36
2023-01-11T11:07:05.472Z,79.54
2023-01-11T11:09:56.088Z,79.45
2023-01-11T11:12:30.921Z,78.54
2023-01-11T11:15:13.356Z,77.62
2023-01-11T11:17:46.088Z,78.72
2023-01-11T11:20:22.325Z,77.67
2023-01-11T11:22:56.809Z,75.33
2023-01-11T11:25:37.372Z,74.24
2023-01-11T11:28:27.423Z,70.33
2023-01-11T11:30:57.265Z,79.14
2023-01-11T11:33:35.472Z,72.00
2023-01-11T11:36:07.967Z,70.77
2023-01-11T11:38:37.313Z,66.84
2023-01-11T11:41:12.950Z,67.40
2023-01-11T11:43:47.620Z,66.18
2023-01-11T11:46:18.733Z,67.78
2023-01-11T11:49:18.063Z,68.44
2023-01-11T11:51:47.074Z,65.83
2023-01-11T11:54:19.680Z,67.31
2023-01-11T11:56:47.418Z,68.57
2023-01-11T11:59:17.865Z,68.41
2023-01-11T12:01:48.441Z,68.37
2023-01-11T12:04:45.034Z,67.26
2023-01-11T12:07:19.384Z,67.81
2023-01-11T12:09:57.559Z,69.28
2023-01-11T12:12:27.886Z,72.05
2023-01-11T12:15:14.523Z,70.87
2023-01-11T12:17:41.544Z,70.26
2023-01-11T12:20:23.064Z,70.51
2023-01-11T12:23:10.363Z,73.82
2023-01-11T12:25:46.036Z,71.37
2023-01-11T12:28:28.145Z,70.05
2023-01-11T12:31:11.143Z,71.39
2023-01-11T12:33:58.709Z,69.68
2023-01-11T12:36:54.893Z,69.89
2023-01-11T12:39:45.657Z,70.00
2023-01-11T12:42:27.416Z,68.05
2023-01-11T12:45:13.461Z,67.42
2023-01-11T12:48:01.517Z,67.72
2023-01-11T12:50:50.948Z,66.17
2023-01-11T12:53:23.487Z,67.42
2023-01-11T12:55:58.274Z,67.00
2023-01-11T12:59:02.005Z,66.34
2023-01-11T13:01:49.965Z,71.91
2023-01-11T13:04:36.769Z,70.73
2023-01-11T13:07:13.938Z,71.16
2023-01-11T13:09:58.838Z,71.32
2023-01-11T13:12:48.016Z,70.53
2023-01-11T13:15:35.651Z,71.45
2023-01-11T13:18:10.775Z,71.37
2023-01-11T13:21:01.409Z,68.86
2023-01-11T13:23:54.741Z,71.23
2023-01-11T13:26:29.702Z,70.32
2023-01-11T13:29:25.633Z,70.65
2023-01-11T13:31:54.389Z,72.44
2023-01-11T13:34:47.457Z,72.90
2023-01-11T13:37:23.932Z,74.36
2023-01-11T13:40:20.278Z,73.81
2023-01-11T13:43:03.753Z,72.44
2023-01-11T13:45:38.919Z,75.74
2023-01-11T13:48:19.338Z,74.99
2023-01-11T13:51:02.743Z,76.08
2023-01-11T13:53:39.426Z,76.61
2023-01-11T13:56:20.289Z,75.92
2023-01-11T13:59:01.642Z,75.10
2023-01-11T14:01:31.341Z,75.67
2023-01-11T14:04:08.407Z,77.59
2023-01-11T14:06:40.788Z,75.81
2023-01-11T14:09:31.939Z,75.66
2023-01-11T14:12:10.497Z,75.73
2023-01-11T14:15:12.251Z,75.41
2023-01-11T14:17:57.899Z,75.45
2023-01-11T14:20:32.747Z,76.08
2023-01-11T14:23:07.615Z,77.78
2023-01-11T14:25:45.375Z,78.17
2023-01-11T14:28:18.573Z,77.60
2023-01-11T14:31:06.713Z,78.47
2023-01-11T14:34:10.981Z,78.37
2023-01-11T14:36:47.520Z,80.15
2023-01-11T14:39:37.120Z,78.52
2023-01-11T14:42:34.369Z,77.68
2023-01-11T14:45:04.584Z,78.08
2023-01-11T14:47:59.077Z,77.80
2023-01-11T14:50:56.035Z,78.03
2023-01-11T14:53:42.611Z,77.13
2023-01-11T14:56:33.692Z,76.92
2023-01-11T14:59:20.946Z,77.38
2023-01-11T15:02:02.933Z,78.00
2023-01-11T15:04:58.614Z,78.35
2023-01-11T15:07:34.217Z,78.77
2023-01-11T15:10:04.497Z,79.26
2023-01-11T15:12:34.215Z,80.07
2023-01-11T15:15:12.818Z,80.71
2023-01-11T15:17:59.287Z,80.73
2023-01-11T15:20:26.738Z,80.17
2023-01-11T15:22:58.660Z,79.52
2023-01-11T15:25:33.552Z,79.89
2023-01-11T15:28:04.331Z,78.80
2023-01-11T15:30:30.932Z,78.29
2023-01-11T15:33:19.480Z,77.08
2023-01-11T15:35:55.449Z,76.87
2023-01-11T15:38:40.651Z,76.89
2023-01-11T15:41:32.320Z,77.36
2023-01-11T15:44:36.128Z,77.58
2023-01-11T15:47:05.696Z,77.40
2023-01-11T15:49:46.694Z,78.19
2023-01-11T15:52:26.144Z,76.90
2023-01-11T15:55:17.085Z,77.45
2023-01-11T15:57:52.734Z,76.96
2023-01-11T16:00:56.807Z,77.71
2023-01-11T16:03:46.943Z,77.43
2023-01-11T16:06:31.911Z,77.86
2023-01-11T16:09:26.351Z,77.72
2023-01-11T16:12:22.846Z,77.81
2023-01-11T16:15:11.009Z,77.46
2023-01-11T16:17:41.032Z,77.26
2023-01-11T16:20:19.754Z,76.65
2023-01-11T16:23:02.580Z,76.16
2023-01-11T16:25:32.344Z,75.52
2023-01-11T16:28:00.278Z,74.42
2023-01-11T16:30:28.190Z,74.58
2023-01-11T16:33:14.384Z,74.37
2023-01-11T16:35:41.053Z,74.76
2023-01-11T16:38:16.041Z,74.56
2023-01-11T16:40:46.203Z,74.75
2023-01-11T16:43:25.411Z,74.06
2023-01-11T16:45:56.236Z,73.97
2023-01-11T16:48:25.101Z,74.87
2023-01-11T16:51:08.443Z,74.38
2023-01-11T16:53:37.433Z,74.71
2023-01-11T16:56:18.256Z,74.70
2023-01-11T16:59:06.889Z,74.97
2023-01-11T17:01:53.174Z,75.37
2023-01-11T17:04:31.515Z,75.77
2023-01-11T17:07:13.336Z,75.50
2023-01-11T17:09:42.993Z,74.71
2023-01-11T17:12:16.643Z,73.99
2023-01-11T17:15:00.521Z,73.92
2023-01-11T17:17:28.060Z,74.75
2023-01-11T17:19:58.782Z,74.49
2023-01-11T17:22:45.715Z,75.31
2023-01-11T17:25:19.909Z,75.16
2023-01-11T17:27:54.723Z,75.36
2023-01-11T17:30:26.237Z,76.66
2023-01-11T17:32:55.279Z,76.50
2023-01-11T17:35:36.562Z,77.55
2023-01-11T17:38:05.921Z,78.36
2023-01-11T17:40:38.709Z,79.00
2023-01-11T17:43:42.963Z,79.36
2023-01-11T17:46:18.226Z,80.12
2023-01-11T17:48:54.119Z,80.71
2023-01-11T17:51:34.971Z,80.56
2023-01-11T17:54:01.773Z,80.73
2023-01-11T17:56:41.911Z,80.67
2023-01-11T17:59:11.472Z,80.95
2023-01-11T18:01:38.567Z,81.93
2023-01-11T18:04:05.678Z,81.66
2023-01-11T18:06:36.608Z,81.92
2023-01-11T18:09:06.451Z,81.47
2023-01-11T18:11:41.470Z,81.60
2023-01-11T18:14:19.461Z,82.51
2023-01-11T18:16:58.859Z,81.20
2023-01-11T18:19:34.774Z,80.67
2023-01-11T18:22:01.601Z,80.67
2023-01-11T18:24:33.820Z,80.25
2023-01-11T18:27:15.372Z,79.34
2023-01-11T18:29:44.543Z,79.95
2023-01-11T18:32:12.983Z,79.81
2023-01-11T18:34:40.055Z,79.47
2023-01-11T18:37:06.670Z,78.60
2023-01-11T18:39:36.663Z,78.90
2023-01-11T18:42:08.014Z,79.03
2023-01-11T18:44:42.762Z,78.60
2023-01-11T18:47:24.760Z,78.36
2023-01-11T18:49:52.620Z,78.31
2023-01-11T18:52:20.979Z,77.97
2023-01-11T18:54:48.111Z,78.72
2023-01-11T18:57:14.775Z,79.27
2023-01-11T18:59:41.466Z,80.65
2023-01-11T19:04:51.219Z,80.00
2023-01-11T19:07:18.941Z,80.85
2023-01-11T19:09:45.608Z,81.32
2023-01-11T19:12:13.262Z,81.37
2023-01-11T19:14:40.572Z,81.26
2023-01-11T19:17:08.259Z,80.86
2023-01-11T19:19:34.982Z,80.90
2023-01-11T19:22:01.701Z,80.95
2023-01-11T19:24:28.306Z,80.71
2023-01-11T19:26:55.253Z,80.08
2023-01-11T19:29:24.628Z,80.70
2023-01-11T19:31:52.756Z,80.98
2023-01-11T19:34:19.823Z,81.30
2023-01-11T19:36:46.575Z,81.14
2023-01-11T19:39:13.202Z,80.89
2023-01-11T19:41:55.187Z,80.85
2023-01-11T19:44:23.012Z,81.49
2023-01-11T19:46:57.088Z,80.60
2023-01-11T19:49:36.174Z,80.28
2023-01-11T19:52:02.955Z,80.68
2023-01-11T19:54:29.487Z,81.67
2023-01-11T19:56:56.291Z,81.56
2023-01-11T19:59:22.829Z,81.82
2023-01-11T20:01:49.423Z,81.82
2023-01-11T20:04:16.441Z,82.56
2023-01-11T20:06:50.360Z,82.43
2023-01-11T20:09:18.422Z,83.05
2023-01-11T20:11:45.706Z,83.23
2023-01-11T20:14:12.527Z,83.86
2023-01-11T20:16:39.090Z,83.77
2023-01-11T20:19:05.684Z,84.84
2023-01-11T20:21:34.208Z,85.92
2023-01-11T20:24:02.299Z,86.20
2023-01-11T20:26:30.655Z,87.59
2023-01-11T20:28:58.245Z,87.69
2023-01-11T20:31:28.240Z,88.06
2023-01-11T20:33:56.034Z,88.58
2023-01-11T20:36:23.224Z,89.67
2023-01-11T20:38:49.949Z,90.74
2023-01-11T20:41:37.864Z,91.24
2023-01-11T20:44:06.090Z,92.44
2023-01-11T20:46:33.446Z,93.27
2023-01-11T20:49:00.060Z,92.52
2023-01-11T20:51:27.005Z,92.29
2023-01-11T20:53:53.651Z,92.14
2023-01-11T20:56:20.227Z,92.65
2023-01-11T20:58:48.241Z,91.55
2023-01-11T21:01:16.535Z,91.55
2023-01-11T21:03:43.115Z,90.83
2023-01-11T21:06:10.042Z,91.10
2023-01-11T21:08:37.377Z,90.98
2023-01-11T21:11:08.377Z,91.20
2023-01-11T21:13:35.599Z,90.85
2023-01-11T21:16:14.087Z,90.89
2023-01-11T21:18:43.897Z,90.64
2023-01-11T21:21:15.615Z,90.78
2023-01-11T21:23:42.321Z,90.65
2023-01-11T21:26:18.653Z,90.44
2023-01-11T21:28:49.860Z,90.01
2023-01-11T21:31:17.887Z,90.30
2023-01-11T21:33:44.496Z,90.14
2023-01-11T21:36:13.830Z,90.91
2023-01-11T21:38:40.673Z,91.26
2023-01-11T21:41:08.413Z,90.55
2023-01-11T21:43:35.953Z,89.53
2023-01-11T21:46:04.775Z,89.84
2023-01-11T21:48:32.117Z,90.25
2023-01-11T21:50:58.730Z,90.00
2023-01-11T21:53:29.490Z,91.63
2023-01-11T21:55:56.531Z,92.30
2023-01-11T21:58:23.077Z,91.14
2023-01-11T22:00:49.661Z,91.66
2023-01-11T22:03:16.272Z,92.37
2023-01-11T22:05:42.761Z,91.87
2023-01-11T22:08:09.280Z,91.43
2023-01-11T22:10:35.901Z,91.02
2023-01-11T22:13:02.529Z,91.72
2023-01-11T22:15:29.048Z,91.47
2023-01-11T22:17:55.686Z,91.85
2023-01-11T22:20:22.211Z,91.81
2023-01-11T22:22:48.840Z,92.03
2023-01-11T22:25:15.635Z,92.80
2023-01-11T22:27:42.226Z,92.36
2023-01-11T22:30:09.461Z,92.29
2023-01-11T22:32:35.969Z,93.38
2023-01-11T22:35:02.609Z,93.52
2023-01-11T22:37:29.117Z,93.82
2023-01-11T22:39:55.628Z,94.31
2023-01-11T22:42:22.174Z,94.62
2023-01-11T22:44:50.044Z,94.54
2023-01-11T22:47:16.549Z,94.80
2023-01-11T22:49:43.101Z,94.41
2023-01-11T22:52:09.645Z,93.98
2023-01-11T22:54:36.179Z,93.77
2023-01-11T22:57:02.795Z,94.09
2023-01-11T22:59:29.358Z,93.10
2023-01-11T23:01:55.917Z,93.15
2023-01-11T23:04:22.581Z,92.66
2023-01-11T23:06:49.259Z,93.18
2023-01-11T23:09:16.902Z,93.39
2023-01-11T23:12:02.830Z,93.27
2023-01-11T23:14:31.099Z,92.76
2023-01-11T23:17:08.135Z,93.13
2023-01-11T23:19:39.938Z,93.16
2023-01-11T23:22:07.695Z,93.23
2023-01-11T23:24:36.021Z,93.41
2023-01-11T23:27:02.681Z,94.10
2023-01-11T23:29:29.240Z,93.57
2023-01-11T23:31:55.810Z,94.08
2023-01-11T23:34:22.928Z,93.98
2023-01-11T23:36:49.449Z,94.44
2023-01-11T23:39:18.817Z,95.78
2023-01-11T23:42:04.440Z,95.82
2023-01-11T23:44:31.329Z,95.44
2023-01-11T23:47:16.354Z,95.19
2023-01-11T23:49:43.782Z,95.15
2023-01-11T23:52:11.273Z,95.18
2023-01-11T23:54:37.874Z,96.04
2023-01-11T23:57:04.519Z,95.51
2023-01-11T23:59:31.579Z,96.22
